createdAt,value
2018-07-05T00:01:48.873Z,20.90
2018-07-05T00:04:27.999Z,20.80
2018-07-05T00:07:07.157Z,20.80
2018-07-05T00:09:46.457Z,20.70
2018-07-05T00:12:25.587Z,20.70
2018-07-05T00:15:04.660Z,20.70
2018-07-05T00:17:43.781Z,20.60
2018-07-05T00:20:23.060Z,20.60
2018-07-05T00:23:02.125Z,20.50
2018-07-05T00:25:41.284Z,20.50
2018-07-05T00:28:20.479Z,20.50
2018-07-05T00:30:59.528Z,20.40
2018-07-05T00:33:38.511Z,20.30
2018-07-05T00:36:17.756Z,20.20
2018-07-05T00:38:56.805Z,20.20
2018-07-05T00:41:35.975Z,20.10
2018-07-05T00:44:15.295Z,20.10
2018-07-05T00:46:54.431Z,20.00
2018-07-05T00:49:33.470Z,20.00
2018-07-05T00:52:12.488Z,19.90
2018-07-05T00:54:51.489Z,19.90
2018-07-05T00:57:30.657Z,19.80
2018-07-05T01:00:09.950Z,19.80
2018-07-05T01:02:49.095Z,19.80
2018-07-05T01:05:28.066Z,19.80
2018-07-05T01:08:07.175Z,19.80
2018-07-05T01:10:46.492Z,19.80
2018-07-05T01:13:25.787Z,19.80
2018-07-05T01:16:04.912Z,19.70
2018-07-05T01:18:44.073Z,19.70
2018-07-05T01:21:23.190Z,19.60
2018-07-05T01:24:02.241Z,19.60
2018-07-05T01:26:41.416Z,19.50
2018-07-05T01:29:20.575Z,19.40
2018-07-05T01:31:59.632Z,19.40
2018-07-05T01:34:38.820Z,19.30
2018-07-05T01:37:17.830Z,19.30
2018-07-05T01:39:56.904Z,19.30
2018-07-05T01:42:35.933Z,19.20
2018-07-05T01:45:14.958Z,19.20
2018-07-05T01:50:27.398Z,19.20
2018-07-05T01:53:06.511Z,19.20
2018-07-05T01:55:45.533Z,19.20
2018-07-05T01:58:24.674Z,19.20
2018-07-05T02:01:03.698Z,19.20
2018-07-05T02:03:42.721Z,19.30
2018-07-05T02:06:21.941Z,19.30
2018-07-05T02:09:00.853Z,19.30
2018-07-05T02:11:39.940Z,19.30
2018-07-05T02:14:19.084Z,19.30
2018-07-05T02:16:58.233Z,19.20
2018-07-05T02:19:37.260Z,19.20
2018-07-05T02:22:16.338Z,19.20
2018-07-05T02:24:55.477Z,19.20
2018-07-05T02:27:34.503Z,19.30
2018-07-05T02:30:13.522Z,19.30
2018-07-05T02:35:25.902Z,19.30
2018-07-05T02:38:10.631Z,19.30
2018-07-05T02:40:49.796Z,19.30
2018-07-05T02:43:29.148Z,19.30
2018-07-05T02:46:08.240Z,19.30
2018-07-05T02:48:47.232Z,19.30
2018-07-05T02:51:26.510Z,19.20
2018-07-05T02:54:05.491Z,19.20
2018-07-05T02:56:44.653Z,19.20
2018-07-05T02:59:23.862Z,19.20
2018-07-05T03:02:02.864Z,19.20
2018-07-05T03:04:41.938Z,19.20
2018-07-05T03:07:21.066Z,19.20
2018-07-05T03:10:00.282Z,19.20
2018-07-05T03:12:39.105Z,19.20
2018-07-05T03:15:18.481Z,19.20
2018-07-05T03:17:57.651Z,19.10
2018-07-05T03:20:36.852Z,19.10
2018-07-05T03:23:15.697Z,19.10
2018-07-05T03:25:55.008Z,19.10
2018-07-05T03:28:34.186Z,19.00
2018-07-05T03:31:13.396Z,19.10
2018-07-05T03:33:52.564Z,19.00
2018-07-05T03:36:31.671Z,19.00
2018-07-05T03:39:10.945Z,19.00
2018-07-05T03:41:50.150Z,19.00
2018-07-05T03:44:29.220Z,18.90
2018-07-05T03:47:08.167Z,18.90
2018-07-05T03:49:47.294Z,18.90
2018-07-05T03:52:26.438Z,18.90
2018-07-05T03:55:05.499Z,18.90
2018-07-05T03:57:44.615Z,18.80
2018-07-05T04:02:57.082Z,18.80
2018-07-05T04:05:36.375Z,18.80
2018-07-05T04:08:15.462Z,18.80
2018-07-05T04:10:54.542Z,18.80
2018-07-05T04:13:33.737Z,18.80
2018-07-05T04:16:12.911Z,18.90
2018-07-05T04:18:52.156Z,18.90
2018-07-05T04:21:31.184Z,19.00
2018-07-05T04:24:10.208Z,19.00
2018-07-05T04:26:49.197Z,19.10
2018-07-05T04:29:28.426Z,19.10
2018-07-05T04:32:07.835Z,19.20
2018-07-05T04:34:46.945Z,19.20
2018-07-05T04:37:25.978Z,19.30
2018-07-05T04:40:05.217Z,19.30
2018-07-05T04:42:44.242Z,19.40
2018-07-05T04:45:23.569Z,19.40
2018-07-05T04:48:02.709Z,19.50
2018-07-05T04:50:41.993Z,19.50
2018-07-05T04:53:21.088Z,19.60
2018-07-05T04:56:00.509Z,19.70
2018-07-05T04:58:39.723Z,19.70
2018-07-05T05:01:18.963Z,19.70
2018-07-05T05:03:58.110Z,19.80
2018-07-05T05:06:37.094Z,19.90
2018-07-05T05:09:16.209Z,20.00
2018-07-05T05:11:55.213Z,20.10
2018-07-05T05:14:34.241Z,20.20
2018-07-05T05:17:13.558Z,20.30
2018-07-05T05:19:52.640Z,20.30
2018-07-05T05:22:31.707Z,20.40
2018-07-05T05:25:10.974Z,20.40
2018-07-05T05:30:23.325Z,20.30
2018-07-05T05:33:02.324Z,20.30
2018-07-05T05:35:41.515Z,20.30
2018-07-05T05:38:20.710Z,20.30
2018-07-05T05:40:59.741Z,20.40
2018-07-05T05:43:38.782Z,20.40
2018-07-05T05:46:17.826Z,20.40
2018-07-05T05:48:56.826Z,20.40
2018-07-05T05:51:35.911Z,20.40
2018-07-05T05:54:15.039Z,20.40
2018-07-05T05:56:54.143Z,20.40
2018-07-05T05:59:33.331Z,20.50
2018-07-05T06:02:12.482Z,20.60
2018-07-05T06:04:51.571Z,20.60
2018-07-05T06:07:30.832Z,20.70
2018-07-05T06:10:09.997Z,20.80
2018-07-05T06:12:49.197Z,20.80
2018-07-05T06:15:28.254Z,20.80
2018-07-05T06:18:07.315Z,20.90
2018-07-05T06:20:46.605Z,20.90
2018-07-05T06:23:25.626Z,20.90
2018-07-05T06:26:04.830Z,21.00
2018-07-05T06:28:43.858Z,21.00
2018-07-05T06:33:56.549Z,21.10
2018-07-05T06:36:35.633Z,21.10
2018-07-05T06:39:14.962Z,21.10
2018-07-05T06:41:54.125Z,21.00
2018-07-05T06:44:33.808Z,21.10
2018-07-05T06:47:12.757Z,21.20
2018-07-05T06:49:51.927Z,21.20
2018-07-05T06:52:31.083Z,21.20
2018-07-05T06:55:10.357Z,21.20
2018-07-05T06:57:49.521Z,21.20
2018-07-05T07:00:28.840Z,21.10
2018-07-05T07:03:08.031Z,21.20
2018-07-05T07:05:47.292Z,21.30
2018-07-05T07:08:26.327Z,21.40
2018-07-05T07:11:05.448Z,21.40
2018-07-05T07:13:44.630Z,21.50
2018-07-05T07:16:23.989Z,21.60
2018-07-05T07:19:03.106Z,21.60
2018-07-05T07:21:42.270Z,21.70
2018-07-05T07:24:21.462Z,21.80
2018-07-05T07:27:00.690Z,22.00
2018-07-05T07:29:39.826Z,22.30
2018-07-05T07:32:18.900Z,22.30
2018-07-05T07:34:58.053Z,22.30
2018-07-05T07:37:37.294Z,22.20
2018-07-05T07:40:16.616Z,22.20
2018-07-05T07:42:43.310Z,22.30
2018-07-05T07:45:09.964Z,22.60
2018-07-05T07:47:36.626Z,22.80
2018-07-05T07:50:03.310Z,23.20
2018-07-05T07:52:29.963Z,23.30
2018-07-05T07:54:56.656Z,23.30
2018-07-05T07:57:23.344Z,23.20
2018-07-05T07:59:49.999Z,23.20
2018-07-05T08:02:16.629Z,23.10
2018-07-05T08:04:43.319Z,23.10
2018-07-05T08:07:10.368Z,23.10
2018-07-05T08:09:37.099Z,23.20
2018-07-05T08:12:03.931Z,23.10
2018-07-05T08:14:30.563Z,23.00
2018-07-05T08:16:57.234Z,22.90
2018-07-05T08:19:23.925Z,22.90
2018-07-05T08:21:50.567Z,23.10
2018-07-05T08:24:17.186Z,23.40
2018-07-05T08:26:44.054Z,23.60
2018-07-05T08:29:10.758Z,24.00
2018-07-05T08:34:04.592Z,25.50
2018-07-05T08:36:31.235Z,26.30
2018-07-05T08:38:57.871Z,26.50
2018-07-05T08:41:24.519Z,26.70
2018-07-05T08:43:51.169Z,26.80
2018-07-05T08:46:17.736Z,26.70
2018-07-05T08:48:44.441Z,26.50
2018-07-05T08:51:11.123Z,26.20
2018-07-05T08:53:37.713Z,26.20
2018-07-05T08:56:04.332Z,26.50
2018-07-05T08:58:31.001Z,27.00
2018-07-05T09:00:57.772Z,27.30
2018-07-05T09:03:24.421Z,27.90
2018-07-05T09:05:51.143Z,29.00
2018-07-05T09:08:17.759Z,30.20
2018-07-05T09:10:44.371Z,31.30
2018-07-05T09:13:11.011Z,32.40
2018-07-05T09:15:37.592Z,33.20
2018-07-05T09:18:04.238Z,33.70
2018-07-05T09:20:30.791Z,34.00
2018-07-05T09:22:57.385Z,34.20
2018-07-05T09:25:24.039Z,34.80
2018-07-05T09:27:50.977Z,35.10
2018-07-05T09:30:17.658Z,35.20
2018-07-05T09:32:44.291Z,35.40
2018-07-05T09:35:10.910Z,34.80
2018-07-05T09:37:37.604Z,34.60
2018-07-05T09:40:04.194Z,34.70
2018-07-05T09:42:30.825Z,34.90
2018-07-05T09:44:57.423Z,35.30
2018-07-05T09:47:24.009Z,34.90
2018-07-05T09:49:50.616Z,34.70
2018-07-05T09:52:17.207Z,34.90
2018-07-05T09:54:43.786Z,35.00
2018-07-05T09:57:10.398Z,34.30
2018-07-05T09:59:37.068Z,34.30
2018-07-05T10:02:03.723Z,34.50
2018-07-05T10:04:30.367Z,34.80
2018-07-05T10:06:56.930Z,34.50
2018-07-05T10:09:23.488Z,34.10
2018-07-05T10:11:50.115Z,33.30
2018-07-05T10:14:16.726Z,32.70
2018-07-05T10:16:43.357Z,32.20
2018-07-05T10:19:09.995Z,31.90
2018-07-05T10:21:36.804Z,31.80
2018-07-05T10:24:03.536Z,31.80
2018-07-05T10:26:30.307Z,31.60
2018-07-05T10:29:09.580Z,31.40
2018-07-05T10:31:48.731Z,31.30
2018-07-05T10:36:42.428Z,31.20
2018-07-05T10:39:09.026Z,31.60
2018-07-05T10:41:48.026Z,31.80
2018-07-05T10:44:26.929Z,31.70
2018-07-05T10:47:05.936Z,32.30
2018-07-05T10:49:45.143Z,33.20
2018-07-05T10:52:24.194Z,33.70
2018-07-05T10:55:03.359Z,33.80
2018-07-05T10:57:42.416Z,33.80
2018-07-05T11:00:21.536Z,33.30
2018-07-05T11:03:00.690Z,33.20
2018-07-05T11:05:39.980Z,33.30
2018-07-05T11:08:19.101Z,33.90
2018-07-05T11:10:58.274Z,34.40
2018-07-05T11:13:37.346Z,34.00
2018-07-05T11:16:16.663Z,33.30
2018-07-05T11:21:29.107Z,31.80
2018-07-05T11:24:08.096Z,30.80
2018-07-05T11:29:20.419Z,29.70
2018-07-05T11:34:32.682Z,29.80
2018-07-05T11:37:11.908Z,29.80
2018-07-05T11:39:51.080Z,29.50
2018-07-05T11:42:30.326Z,29.40
2018-07-05T11:45:09.406Z,29.40
2018-07-05T11:47:48.482Z,29.50
2018-07-05T11:50:27.420Z,29.50
2018-07-05T11:53:06.333Z,29.80
2018-07-05T11:55:45.262Z,30.10
2018-07-05T11:58:24.354Z,30.40
2018-07-05T12:01:03.501Z,30.60
2018-07-05T12:03:42.508Z,30.80
2018-07-05T12:06:21.636Z,31.00
2018-07-05T12:09:00.665Z,31.30
2018-07-05T12:11:39.863Z,31.20
2018-07-05T12:14:19.002Z,31.60
2018-07-05T12:16:58.130Z,32.00
2018-07-05T12:19:37.346Z,32.00
2018-07-05T12:22:16.358Z,32.00
2018-07-05T12:24:55.493Z,32.10
2018-07-05T12:27:34.483Z,31.90
2018-07-05T12:30:13.597Z,32.00
2018-07-05T12:32:52.705Z,32.00
2018-07-05T12:35:31.992Z,32.10
2018-07-05T12:38:11.057Z,32.20
2018-07-05T12:40:50.257Z,32.00
2018-07-05T12:43:29.692Z,31.70
2018-07-05T12:46:08.752Z,31.00
2018-07-05T12:48:47.966Z,30.60
2018-07-05T12:51:27.430Z,30.70
2018-07-05T12:54:06.502Z,30.30
2018-07-05T12:56:45.670Z,30.20
2018-07-05T12:59:24.700Z,30.20
2018-07-05T13:02:03.826Z,30.40
2018-07-05T13:04:43.035Z,30.80
2018-07-05T13:07:22.210Z,30.90
2018-07-05T13:10:01.321Z,30.90
2018-07-05T13:12:40.257Z,30.80
2018-07-05T13:15:19.253Z,30.60
2018-07-05T13:17:58.496Z,30.80
2018-07-05T13:20:37.538Z,31.30
2018-07-05T13:25:50.149Z,31.60
2018-07-05T13:28:29.177Z,31.60
2018-07-05T13:31:08.367Z,31.30
2018-07-05T13:33:47.478Z,30.90
2018-07-05T13:36:26.738Z,30.80
2018-07-05T13:39:06.047Z,30.40
2018-07-05T13:41:45.470Z,30.10
2018-07-05T13:44:24.615Z,30.00
2018-07-05T13:47:03.910Z,30.10
2018-07-05T13:49:43.061Z,30.40
2018-07-05T13:52:22.253Z,30.50
2018-07-05T13:55:02.019Z,30.40
2018-07-05T13:57:41.226Z,30.30
2018-07-05T14:00:20.522Z,30.30
2018-07-05T14:02:59.613Z,30.40
2018-07-05T14:05:38.745Z,30.00
2018-07-05T14:08:18.002Z,29.90
2018-07-05T14:10:57.187Z,29.50
2018-07-05T14:13:36.319Z,29.20
2018-07-05T14:16:15.529Z,29.10
2018-07-05T14:18:55.005Z,29.00
2018-07-05T14:21:34.068Z,28.90
2018-07-05T14:24:13.257Z,28.90
2018-07-05T14:26:52.854Z,29.10
2018-07-05T14:29:32.020Z,29.20
2018-07-05T14:32:11.028Z,29.10
2018-07-05T14:34:50.281Z,29.20
2018-07-05T14:37:29.411Z,29.30
2018-07-05T14:40:08.281Z,29.40
2018-07-05T14:42:47.316Z,29.40
2018-07-05T14:45:26.479Z,29.30
2018-07-05T14:48:05.787Z,29.30
2018-07-05T14:50:45.092Z,29.30
2018-07-05T14:55:57.386Z,29.20
2018-07-05T14:58:36.567Z,29.20
2018-07-05T15:01:15.781Z,29.30
2018-07-05T15:03:54.992Z,29.30
2018-07-05T15:06:34.048Z,29.30
2018-07-05T15:09:13.285Z,29.40
2018-07-05T15:11:52.314Z,29.40
2018-07-05T15:14:31.413Z,29.60
2018-07-05T15:17:10.711Z,29.60
2018-07-05T15:19:49.882Z,29.70
2018-07-05T15:22:28.949Z,30.00
2018-07-05T15:25:07.940Z,30.20
2018-07-05T15:27:47.210Z,30.30
2018-07-05T15:30:26.055Z,29.90
2018-07-05T15:33:05.192Z,30.00
2018-07-05T15:35:44.355Z,29.80
2018-07-05T15:38:23.719Z,29.60
2018-07-05T15:41:02.897Z,29.40
2018-07-05T15:43:41.965Z,29.40
2018-07-05T15:46:21.052Z,29.60
2018-07-05T15:49:00.269Z,29.40
2018-07-05T15:51:39.465Z,29.20
2018-07-05T15:54:18.510Z,29.00
2018-07-05T15:56:57.549Z,28.90
2018-07-05T15:59:36.606Z,29.10
2018-07-05T16:02:15.651Z,29.20
2018-07-05T16:04:54.716Z,29.20
2018-07-05T16:07:33.948Z,29.30
2018-07-05T16:10:13.258Z,29.30
2018-07-05T16:12:52.283Z,29.10
2018-07-05T16:15:31.505Z,28.80
2018-07-05T16:18:10.730Z,28.50
2018-07-05T16:20:50.263Z,28.40
2018-07-05T16:23:29.583Z,28.50
2018-07-05T16:26:08.556Z,28.50
2018-07-05T16:31:21.167Z,27.90
2018-07-05T16:34:00.400Z,27.70
2018-07-05T16:36:39.381Z,27.70
2018-07-05T16:39:18.472Z,27.60
2018-07-05T16:41:57.725Z,27.60
2018-07-05T16:44:36.757Z,27.70
2018-07-05T16:47:19.968Z,27.80
2018-07-05T16:49:59.174Z,27.90
2018-07-05T16:52:38.269Z,28.00
2018-07-05T16:55:17.362Z,28.00
2018-07-05T16:57:56.417Z,28.10
2018-07-05T17:00:35.557Z,28.10
2018-07-05T17:03:14.725Z,28.10
2018-07-05T17:05:53.945Z,28.10
2018-07-05T17:08:33.185Z,28.00
2018-07-05T17:11:12.306Z,27.90
2018-07-05T17:13:51.526Z,27.70
2018-07-05T17:16:30.720Z,27.60
2018-07-05T17:19:09.818Z,27.60
2018-07-05T17:21:48.982Z,27.60
2018-07-05T17:24:28.226Z,27.50
2018-07-05T17:27:07.331Z,27.40
2018-07-05T17:29:46.386Z,27.30
2018-07-05T17:32:26.492Z,27.20
2018-07-05T17:35:05.702Z,27.10
2018-07-05T17:37:44.784Z,26.90
2018-07-05T17:40:23.840Z,26.70
2018-07-05T17:43:03.160Z,26.50
2018-07-05T17:45:42.326Z,26.40
2018-07-05T17:48:21.457Z,26.40
2018-07-05T17:51:00.553Z,26.40
2018-07-05T17:53:40.004Z,26.40
2018-07-05T17:56:19.156Z,26.50
2018-07-05T17:58:58.633Z,26.50
2018-07-05T18:01:37.892Z,26.50
2018-07-05T18:04:17.017Z,26.50
2018-07-05T18:06:56.109Z,26.40
2018-07-05T18:09:35.499Z,26.30
2018-07-05T18:12:14.747Z,26.20
2018-07-05T18:14:54.101Z,26.10
2018-07-05T18:17:33.161Z,26.00
2018-07-05T18:20:12.455Z,25.90
2018-07-05T18:22:51.642Z,25.80
2018-07-05T18:25:30.878Z,25.70
2018-07-05T18:28:10.115Z,25.60
2018-07-05T18:30:49.259Z,25.50
2018-07-05T18:33:28.484Z,25.40
2018-07-05T18:36:07.685Z,25.40
2018-07-05T18:38:46.711Z,25.30
2018-07-05T18:41:26.075Z,25.20
2018-07-05T18:44:05.050Z,25.10
2018-07-05T18:49:17.571Z,24.90
2018-07-05T18:51:56.706Z,24.80
2018-07-05T18:54:35.870Z,24.80
2018-07-05T18:57:15.071Z,24.70
2018-07-05T18:59:54.098Z,24.70
2018-07-05T19:02:33.279Z,24.50
2018-07-05T19:05:12.496Z,24.50
2018-07-05T19:07:51.601Z,24.40
2018-07-05T19:10:30.621Z,24.30
2018-07-05T19:15:43.335Z,24.20
2018-07-05T19:18:22.656Z,24.10
2018-07-05T19:21:01.890Z,24.00
2018-07-05T19:23:41.048Z,23.90
2018-07-05T19:26:20.151Z,23.80
2018-07-05T19:28:59.198Z,23.60
2018-07-05T19:31:38.240Z,23.50
2018-07-05T19:34:17.345Z,23.50
2018-07-05T19:36:56.811Z,23.40
2018-07-05T19:39:35.788Z,23.30
2018-07-05T19:42:15.082Z,23.20
2018-07-05T19:44:54.334Z,23.10
2018-07-05T19:47:33.632Z,22.90
2018-07-05T19:52:46.161Z,22.70
2018-07-05T19:55:25.400Z,22.60
2018-07-05T19:58:04.426Z,22.50
2018-07-05T20:00:43.785Z,22.40
2018-07-05T20:03:22.961Z,22.30
2018-07-05T20:06:02.039Z,22.20
2018-07-05T20:08:40.968Z,22.10
2018-07-05T20:11:20.085Z,22.00
2018-07-05T20:13:59.301Z,22.00
2018-07-05T20:16:38.377Z,21.90
2018-07-05T20:19:17.694Z,21.80
2018-07-05T20:21:56.757Z,21.70
2018-07-05T20:24:35.906Z,21.60
2018-07-05T20:29:48.473Z,21.50
2018-07-05T20:32:27.723Z,21.40
2018-07-05T20:35:06.877Z,21.40
2018-07-05T20:37:46.138Z,21.30
2018-07-05T20:40:25.157Z,21.20
2018-07-05T20:45:37.634Z,21.00
2018-07-05T20:48:16.792Z,21.00
2018-07-05T20:50:55.766Z,20.90
2018-07-05T20:53:35.054Z,20.80
2018-07-05T20:56:14.260Z,20.80
2018-07-05T20:58:53.533Z,20.70
2018-07-05T21:01:33.644Z,20.60
2018-07-05T21:04:12.791Z,20.50
2018-07-05T21:06:52.098Z,20.50
2018-07-05T21:09:31.304Z,20.40
2018-07-05T21:12:10.475Z,20.30
2018-07-05T21:14:49.694Z,20.30
2018-07-05T21:17:28.936Z,20.20
2018-07-05T21:20:07.981Z,20.10
2018-07-05T21:22:47.016Z,20.10
2018-07-05T21:25:26.313Z,20.00
2018-07-05T21:28:05.482Z,19.90
2018-07-05T21:30:44.923Z,19.90
2018-07-05T21:33:24.185Z,19.80
2018-07-05T21:36:03.554Z,19.80
2018-07-05T21:38:42.713Z,19.70
2018-07-05T21:41:21.628Z,19.70
2018-07-05T21:44:00.653Z,19.60
2018-07-05T21:46:39.658Z,19.60
2018-07-05T21:49:18.855Z,19.50
2018-07-05T21:51:58.045Z,19.40
2018-07-05T21:54:37.197Z,19.40
2018-07-05T21:57:16.270Z,19.30
2018-07-05T21:59:55.473Z,19.30
2018-07-05T22:02:34.639Z,19.20
2018-07-05T22:05:13.561Z,19.20
2018-07-05T22:07:54.157Z,19.10
2018-07-05T22:10:33.335Z,19.10
2018-07-05T22:13:12.561Z,19.00
2018-07-05T22:18:30.358Z,18.90
2018-07-05T22:21:10.790Z,18.90
2018-07-05T22:23:55.857Z,18.80
2018-07-05T22:26:40.544Z,18.80
2018-07-05T22:29:25.317Z,18.70
2018-07-05T22:32:04.476Z,18.60
2018-07-05T22:34:43.639Z,18.60
2018-07-05T22:37:22.710Z,18.60
2018-07-05T22:40:01.831Z,18.60
2018-07-05T22:42:40.966Z,18.60
2018-07-05T22:45:20.076Z,18.60
2018-07-05T22:47:59.245Z,18.60
2018-07-05T22:50:38.292Z,18.50
2018-07-05T22:53:17.592Z,18.50
2018-07-05T22:55:56.746Z,18.50
2018-07-05T22:58:35.911Z,18.40
2018-07-05T23:01:15.153Z,18.40
2018-07-05T23:03:54.642Z,18.40
2018-07-05T23:06:33.862Z,18.40
2018-07-05T23:09:13.017Z,18.30
2018-07-05T23:11:52.045Z,18.30
2018-07-05T23:14:31.185Z,18.20
2018-07-05T23:17:10.579Z,18.20
2018-07-05T23:19:49.555Z,18.20
2018-07-05T23:22:28.590Z,18.10
2018-07-05T23:27:40.919Z,18.20
2018-07-05T23:30:20.141Z,18.20
2018-07-05T23:32:59.527Z,18.20
2018-07-05T23:35:38.808Z,18.20
2018-07-05T23:38:17.953Z,18.20
2018-07-05T23:40:57.053Z,18.10
2018-07-05T23:43:36.226Z,18.10
2018-07-05T23:46:15.417Z,18.00
2018-07-05T23:48:54.467Z,18.00
2018-07-05T23:51:33.607Z,17.90
2018-07-05T23:54:12.850Z,17.90
2018-07-05T23:56:52.062Z,17.80
2018-07-05T23:59:31.089Z,17.70
